sensor_id;sensor_type;location;lat;lon;timestamp;pressure;altitude;pressure_sealevel;temperature;humidity
37368;BME280;23240;43.210;27.910;2022-11-18T00:00:56;100059.66;;;11.79;100.00
37368;BME280;23240;43.210;27.910;2022-11-18T00:03:22;100055.31;;;11.78;100.00
37368;BME280;23240;43.210;27.910;2022-11-18T00:05:55;100056.31;;;11.77;100.00
37368;BME280;23240;43.210;27.910;2022-11-18T00:08:22;100048.69;;;11.73;100.00
37368;BME280;23240;43.210;27.910;2022-11-18T00:10:49;100045.72;;;11.76;100.00
37368;BME280;23240;43.210;27.910;2022-11-18T00:13:15;100050.81;;;11.69;100.00
37368;BME280;23240;43.210;27.910;2022-11-18T00:16:04;100046.75;;;11.65;100.00
37368;BME280;23240;43.210;27.910;2022-11-18T00:18:30;100053.72;;;11.58;100.00
37368;BME280;23240;43.210;27.910;2022-11-18T00:21:03;100063.44;;;11.59;100.00
37368;BME280;23240;43.210;27.910;2022-11-18T00:23:28;100058.44;;;11.46;100.00
37368;BME280;23240;43.210;27.910;2022-11-18T00:25:54;100056.88;;;11.44;100.00
37368;BME280;23240;43.210;27.910;2022-11-18T00:28:20;100060.81;;;11.49;100.00
37368;BME280;23240;43.210;27.910;2022-11-18T00:30:45;100068.59;;;11.43;100.00
37368;BME280;23240;43.210;27.910;2022-11-18T00:33:11;100081.88;;;11.35;100.00
37368;BME280;23240;43.210;27.910;2022-11-18T00:35:36;100077.13;;;11.28;100.00
37368;BME280;23240;43.210;27.910;2022-11-18T00:38:02;100085.03;;;11.20;100.00
37368;BME280;23240;43.210;27.910;2022-11-18T00:40:27;100085.34;;;11.17;100.00
37368;BME280;23240;43.210;27.910;2022-11-18T00:42:53;100076.91;;;11.12;100.00
37368;BME280;23240;43.210;27.910;2022-11-18T00:45:21;100080.13;;;11.06;100.00
37368;BME280;23240;43.210;27.910;2022-11-18T00:47:47;100090.44;;;11.01;100.00
37368;BME280;23240;43.210;27.910;2022-11-18T00:50:13;100094.41;;;10.97;100.00
37368;BME280;23240;43.210;27.910;2022-11-18T00:52:38;100092.72;;;10.96;100.00
37368;BME280;23240;43.210;27.910;2022-11-18T00:55:04;100096.97;;;10.89;100.00
37368;BME280;23240;43.210;27.910;2022-11-18T00:57:30;100088.22;;;10.87;100.00
37368;BME280;23240;43.210;27.910;2022-11-18T00:59:55;100085.13;;;10.81;100.00
37368;BME280;23240;43.210;27.910;2022-11-18T01:02:21;100087.94;;;10.80;100.00
37368;BME280;23240;43.210;27.910;2022-11-18T01:04:46;100084.44;;;10.79;100.00
37368;BME280;23240;43.210;27.910;2022-11-18T01:07:12;100084.00;;;10.84;100.00
37368;BME280;23240;43.210;27.910;2022-11-18T01:09:37;100077.22;;;10.80;100.00
37368;BME280;23240;43.210;27.910;2022-11-18T01:12:03;100074.28;;;10.73;100.00
37368;BME280;23240;43.210;27.910;2022-11-18T01:14:47;100082.88;;;10.67;100.00
37368;BME280;23240;43.210;27.910;2022-11-18T01:17:12;100066.78;;;10.67;100.00
37368;BME280;23240;43.210;27.910;2022-11-18T01:19:38;100082.88;;;10.67;100.00
37368;BME280;23240;43.210;27.910;2022-11-18T01:22:04;100071.16;;;10.68;100.00
37368;BME280;23240;43.210;27.910;2022-11-18T01:24:31;100066.53;;;10.70;100.00
37368;BME280;23240;43.210;27.910;2022-11-18T01:26:58;100078.09;;;10.61;100.00
37368;BME280;23240;43.210;27.910;2022-11-18T01:29:23;100071.75;;;10.62;100.00
37368;BME280;23240;43.210;27.910;2022-11-18T01:31:49;100070.75;;;10.63;100.00
37368;BME280;23240;43.210;27.910;2022-11-18T01:34:14;100068.78;;;10.65;100.00
37368;BME280;23240;43.210;27.910;2022-11-18T01:36:40;100066.69;;;10.69;100.00
37368;BME280;23240;43.210;27.910;2022-11-18T01:39:05;100055.53;;;10.64;100.00
37368;BME280;23240;43.210;27.910;2022-11-18T01:41:31;100065.53;;;10.62;100.00
37368;BME280;23240;43.210;27.910;2022-11-18T01:43:59;100064.00;;;10.59;100.00
37368;BME280;23240;43.210;27.910;2022-11-18T01:46:27;100058.06;;;10.55;100.00
37368;BME280;23240;43.210;27.910;2022-11-18T01:51:30;100065.28;;;10.45;100.00
37368;BME280;23240;43.210;27.910;2022-11-18T01:54:05;100064.53;;;10.43;100.00
37368;BME280;23240;43.210;27.910;2022-11-18T01:56:44;100070.91;;;10.42;100.00
37368;BME280;23240;43.210;27.910;2022-11-18T01:59:14;100065.13;;;10.47;100.00
37368;BME280;23240;43.210;27.910;2022-11-18T02:01:41;100060.47;;;10.39;100.00
37368;BME280;23240;43.210;27.910;2022-11-18T02:04:08;100058.75;;;10.28;100.00
37368;BME280;23240;43.210;27.910;2022-11-18T02:06:34;100065.91;;;10.18;100.00
37368;BME280;23240;43.210;27.910;2022-11-18T02:09:00;100064.06;;;10.09;100.00
37368;BME280;23240;43.210;27.910;2022-11-18T02:11:26;100061.97;;;10.03;100.00
37368;BME280;23240;43.210;27.910;2022-11-18T02:14:10;100068.00;;;10.05;100.00
37368;BME280;23240;43.210;27.910;2022-11-18T02:30:52;100074.66;;;9.61;100.00
37368;BME280;23240;43.210;27.910;2022-11-18T02:33:37;100077.28;;;9.51;100.00
37368;BME280;23240;43.210;27.910;2022-11-18T02:36:57;100082.19;;;9.46;100.00
37368;BME280;23240;43.210;27.910;2022-11-18T02:39:02;100079.25;;;9.49;100.00
37368;BME280;23240;43.210;27.910;2022-11-18T02:41:33;100082.88;;;9.38;100.00
37368;BME280;23240;43.210;27.910;2022-11-18T02:44:04;100083.53;;;9.31;100.00
37368;BME280;23240;43.210;27.910;2022-11-18T02:46:34;100086.75;;;9.24;100.00
37368;BME280;23240;43.210;27.910;2022-11-18T02:49:05;100090.06;;;9.17;100.00
37368;BME280;23240;43.210;27.910;2022-11-18T02:51:32;100089.22;;;9.16;100.00
37368;BME280;23240;43.210;27.910;2022-11-18T02:54:03;100090.66;;;9.20;100.00
37368;BME280;23240;43.210;27.910;2022-11-18T02:56:30;100081.59;;;9.12;100.00
37368;BME280;23240;43.210;27.910;2022-11-18T02:58:57;100095.25;;;9.18;100.00
37368;BME280;23240;43.210;27.910;2022-11-18T03:01:25;100092.47;;;9.20;100.00
37368;BME280;23240;43.210;27.910;2022-11-18T03:03:51;100096.78;;;9.11;100.00
37368;BME280;23240;43.210;27.910;2022-11-18T03:06:39;100089.31;;;9.05;100.00
37368;BME280;23240;43.210;27.910;2022-11-18T03:09:19;100095.16;;;8.99;100.00
37368;BME280;23240;43.210;27.910;2022-11-18T03:11:57;100089.88;;;9.09;100.00
37368;BME280;23240;43.210;27.910;2022-11-18T03:23:16;100090.25;;;9.04;100.00
37368;BME280;23240;43.210;27.910;2022-11-18T03:25:48;100087.59;;;9.04;100.00
37368;BME280;23240;43.210;27.910;2022-11-18T03:28:26;100083.69;;;9.08;100.00
37368;BME280;23240;43.210;27.910;2022-11-18T03:34:13;100078.66;;;9.15;100.00
37368;BME280;23240;43.210;27.910;2022-11-18T03:36:46;100084.72;;;9.17;100.00
37368;BME280;23240;43.210;27.910;2022-11-18T03:39:16;100084.19;;;9.23;100.00
37368;BME280;23240;43.210;27.910;2022-11-18T03:41:48;100086.16;;;9.21;100.00
37368;BME280;23240;43.210;27.910;2022-11-18T03:44:20;100090.06;;;9.17;100.00
37368;BME280;23240;43.210;27.910;2022-11-18T03:46:55;100085.84;;;9.14;100.00
37368;BME280;23240;43.210;27.910;2022-11-18T03:49:28;100091.88;;;9.16;100.00
37368;BME280;23240;43.210;27.910;2022-11-18T03:51:58;100095.53;;;9.15;100.00
37368;BME280;23240;43.210;27.910;2022-11-18T03:54:29;100089.53;;;9.23;100.00
37368;BME280;23240;43.210;27.910;2022-11-18T03:57:03;100092.59;;;9.18;100.00
37368;BME280;23240;43.210;27.910;2022-11-18T03:59:47;100089.41;;;9.24;100.00
37368;BME280;23240;43.210;27.910;2022-11-18T04:02:18;100092.19;;;9.23;100.00
37368;BME280;23240;43.210;27.910;2022-11-18T04:04:47;100094.56;;;9.16;100.00
37368;BME280;23240;43.210;27.910;2022-11-18T04:12:35;100083.28;;;9.34;100.00
37368;BME280;23240;43.210;27.910;2022-11-18T04:15:02;100076.59;;;9.28;100.00
37368;BME280;23240;43.210;27.910;2022-11-18T04:17:28;100083.38;;;9.32;100.00
37368;BME280;23240;43.210;27.910;2022-11-18T04:19:54;100076.34;;;9.31;100.00
37368;BME280;23240;43.210;27.910;2022-11-18T04:22:20;100082.00;;;9.38;100.00
37368;BME280;23240;43.210;27.910;2022-11-18T04:24:45;100087.09;;;9.41;100.00
37368;BME280;23240;43.210;27.910;2022-11-18T04:27:12;100079.81;;;9.43;100.00
37368;BME280;23240;43.210;27.910;2022-11-18T04:29:37;100084.28;;;9.42;100.00
37368;BME280;23240;43.210;27.910;2022-11-18T04:32:03;100089.06;;;9.39;100.00
37368;BME280;23240;43.210;27.910;2022-11-18T04:34:29;100096.34;;;9.37;100.00
37368;BME280;23240;43.210;27.910;2022-11-18T04:36:56;100104.66;;;9.34;100.00
37368;BME280;23240;43.210;27.910;2022-11-18T04:39:21;100109.00;;;9.35;100.00
37368;BME280;23240;43.210;27.910;2022-11-18T04:41:47;100109.72;;;9.37;100.00
37368;BME280;23240;43.210;27.910;2022-11-18T04:44:24;100116.19;;;9.34;100.00
37368;BME280;23240;43.210;27.910;2022-11-18T04:46:50;100120.94;;;9.31;100.00
37368;BME280;23240;43.210;27.910;2022-11-18T04:49:16;100126.09;;;9.22;100.00
37368;BME280;23240;43.210;27.910;2022-11-18T04:51:42;100133.66;;;9.17;100.00
37368;BME280;23240;43.210;27.910;2022-11-18T04:54:08;100130.81;;;9.09;100.00
37368;BME280;23240;43.210;27.910;2022-11-18T04:56:34;100129.03;;;8.98;100.00
37368;BME280;23240;43.210;27.910;2022-11-18T04:59:01;100128.13;;;8.88;100.00
37368;BME280;23240;43.210;27.910;2022-11-18T05:01:27;100145.03;;;8.78;100.00
37368;BME280;23240;43.210;27.910;2022-11-18T05:03:54;100147.97;;;8.74;100.00
37368;BME280;23240;43.210;27.910;2022-11-18T05:06:20;100146.41;;;8.72;100.00
37368;BME280;23240;43.210;27.910;2022-11-18T05:08:45;100158.91;;;8.71;100.00
37368;BME280;23240;43.210;27.910;2022-11-18T05:11:11;100157.56;;;8.77;100.00
37368;BME280;23240;43.210;27.910;2022-11-18T05:13:55;100154.75;;;8.79;100.00
37368;BME280;23240;43.210;27.910;2022-11-18T05:16:20;100152.34;;;8.75;100.00
37368;BME280;23240;43.210;27.910;2022-11-18T05:18:46;100149.94;;;8.72;100.00
37368;BME280;23240;43.210;27.910;2022-11-18T05:21:11;100156.44;;;8.80;100.00
37368;BME280;23240;43.210;27.910;2022-11-18T05:23:37;100156.44;;;8.80;100.00
37368;BME280;23240;43.210;27.910;2022-11-18T05:26:03;100152.81;;;8.81;100.00
37368;BME280;23240;43.210;27.910;2022-11-18T05:28:29;100146.81;;;8.88;100.00
37368;BME280;23240;43.210;27.910;2022-11-18T05:30:54;100153.91;;;8.99;100.00
37368;BME280;23240;43.210;27.910;2022-11-18T05:33:20;100155.69;;;9.10;100.00
37368;BME280;23240;43.210;27.910;2022-11-18T05:35:45;100149.97;;;9.14;100.00
37368;BME280;23240;43.210;27.910;2022-11-18T05:38:11;100156.72;;;9.18;100.00
37368;BME280;23240;43.210;27.910;2022-11-18T05:40:37;100146.09;;;9.28;100.00
37368;BME280;23240;43.210;27.910;2022-11-18T05:43:02;100146.81;;;9.30;100.00
37368;BME280;23240;43.210;27.910;2022-11-18T05:45:38;100140.09;;;9.36;100.00
37368;BME280;23240;43.210;27.910;2022-11-18T05:48:05;100150.53;;;9.39;100.00
37368;BME280;23240;43.210;27.910;2022-11-18T05:50:33;100137.28;;;9.37;100.00
37368;BME280;23240;43.210;27.910;2022-11-18T05:52:59;100143.47;;;9.38;100.00
37368;BME280;23240;43.210;27.910;2022-11-18T05:55:30;100147.59;;;9.42;100.00
37368;BME280;23240;43.210;27.910;2022-11-18T05:57:57;100148.47;;;9.52;100.00
37368;BME280;23240;43.210;27.910;2022-11-18T06:00:23;100146.59;;;9.64;100.00
37368;BME280;23240;43.210;27.910;2022-11-18T06:02:50;100148.31;;;9.74;100.00
37368;BME280;23240;43.210;27.910;2022-11-18T06:05:18;100145.28;;;9.89;100.00
37368;BME280;23240;43.210;27.910;2022-11-18T06:07:45;100148.81;;;9.99;100.00
37368;BME280;23240;43.210;27.910;2022-11-18T06:10:15;100148.00;;;10.08;100.00
37368;BME280;23240;43.210;27.910;2022-11-18T06:12:44;100145.63;;;10.15;100.00
37368;BME280;23240;43.210;27.910;2022-11-18T06:15:16;100145.94;;;10.21;100.00
37368;BME280;23240;43.210;27.910;2022-11-18T06:20:18;100156.72;;;10.41;100.00
37368;BME280;23240;43.210;27.910;2022-11-18T06:22:47;100155.75;;;10.51;100.00
37368;BME280;23240;43.210;27.910;2022-11-18T06:25:13;100157.59;;;10.61;100.00
37368;BME280;23240;43.210;27.910;2022-11-18T06:27:39;100156.19;;;10.66;100.00
37368;BME280;23240;43.210;27.910;2022-11-18T06:30:06;100157.75;;;10.69;100.00
37368;BME280;23240;43.210;27.910;2022-11-18T06:32:32;100153.34;;;10.68;100.00
37368;BME280;23240;43.210;27.910;2022-11-18T06:34:57;100155.59;;;10.72;100.00
37368;BME280;23240;43.210;27.910;2022-11-18T06:37:23;100147.44;;;10.74;100.00
37368;BME280;23240;43.210;27.910;2022-11-18T06:39:48;100139.53;;;10.82;100.00
37368;BME280;23240;43.210;27.910;2022-11-18T06:42:14;100140.78;;;10.97;100.00
37368;BME280;23240;43.210;27.910;2022-11-18T06:45:00;100139.50;;;11.11;100.00
37368;BME280;23240;43.210;27.910;2022-11-18T06:47:26;100134.84;;;11.23;100.00
37368;BME280;23240;43.210;27.910;2022-11-18T06:49:52;100134.41;;;11.37;100.00
37368;BME280;23240;43.210;27.910;2022-11-18T06:52:18;100136.06;;;11.48;100.00
37368;BME280;23240;43.210;27.910;2022-11-18T06:54:43;100137.97;;;11.65;100.00
37368;BME280;23240;43.210;27.910;2022-11-18T06:57:09;100132.53;;;11.94;100.00
37368;BME280;23240;43.210;27.910;2022-11-18T06:59:34;100128.53;;;12.26;100.00
37368;BME280;23240;43.210;27.910;2022-11-18T07:02:00;100127.69;;;12.61;100.00
37368;BME280;23240;43.210;27.910;2022-11-18T07:04:25;100118.19;;;12.84;100.00
37368;BME280;23240;43.210;27.910;2022-11-18T07:06:51;100117.41;;;12.92;100.00
37368;BME280;23240;43.210;27.910;2022-11-18T07:09:16;100115.00;;;13.07;100.00
37368;BME280;23240;43.210;27.910;2022-11-18T07:11:42;100106.13;;;13.15;100.00
37368;BME280;23240;43.210;27.910;2022-11-18T07:14:08;100101.28;;;13.18;100.00
37368;BME280;23240;43.210;27.910;2022-11-18T07:16:34;100101.69;;;13.23;100.00
37368;BME280;23240;43.210;27.910;2022-11-18T07:19:10;100107.44;;;13.28;100.00
37368;BME280;23240;43.210;27.910;2022-11-18T07:21:36;100116.41;;;13.37;100.00
37368;BME280;23240;43.210;27.910;2022-11-18T07:24:04;100110.84;;;13.30;100.00
37368;BME280;23240;43.210;27.910;2022-11-18T07:26:30;100107.78;;;13.25;100.00
37368;BME280;23240;43.210;27.910;2022-11-18T07:28:55;100108.94;;;13.23;100.00
37368;BME280;23240;43.210;27.910;2022-11-18T07:31:21;100114.31;;;13.23;100.00
37368;BME280;23240;43.210;27.910;2022-11-18T07:33:47;100100.03;;;13.22;100.00
37368;BME280;23240;43.210;27.910;2022-11-18T07:36:17;100110.22;;;13.19;100.00
37368;BME280;23240;43.210;27.910;2022-11-18T07:38:43;100109.00;;;13.13;100.00
37368;BME280;23240;43.210;27.910;2022-11-18T07:41:23;100100.75;;;13.15;100.00
37368;BME280;23240;43.210;27.910;2022-11-18T07:43:51;100097.88;;;13.26;100.00
37368;BME280;23240;43.210;27.910;2022-11-18T07:46:26;100101.13;;;13.37;100.00
37368;BME280;23240;43.210;27.910;2022-11-18T07:48:54;100102.78;;;13.65;100.00
37368;BME280;23240;43.210;27.910;2022-11-18T07:51:22;100105.06;;;13.85;100.00
37368;BME280;23240;43.210;27.910;2022-11-18T07:53:48;100093.06;;;14.14;100.00
37368;BME280;23240;43.210;27.910;2022-11-18T07:56:14;100089.41;;;14.39;100.00
37368;BME280;23240;43.210;27.910;2022-11-18T07:58:40;100085.09;;;14.71;100.00
37368;BME280;23240;43.210;27.910;2022-11-18T08:01:14;100075.47;;;15.01;100.00
37368;BME280;23240;43.210;27.910;2022-11-18T08:03:40;100078.66;;;15.21;100.00
37368;BME280;23240;43.210;27.910;2022-11-18T08:06:07;100071.19;;;15.39;100.00
37368;BME280;23240;43.210;27.910;2022-11-18T08:08:34;100083.34;;;15.43;100.00
37368;BME280;23240;43.210;27.910;2022-11-18T08:11:02;100080.59;;;15.60;100.00
37368;BME280;23240;43.210;27.910;2022-11-18T08:13:28;100086.31;;;15.73;100.00
37368;BME280;23240;43.210;27.910;2022-11-18T08:15:54;100080.69;;;15.83;100.00
37368;BME280;23240;43.210;27.910;2022-11-18T08:18:20;100082.16;;;15.93;100.00
37368;BME280;23240;43.210;27.910;2022-11-18T08:20:46;100073.22;;;16.24;100.00
37368;BME280;23240;43.210;27.910;2022-11-18T08:23:13;100080.47;;;16.55;100.00
37368;BME280;23240;43.210;27.910;2022-11-18T08:25:40;100087.69;;;16.85;100.00
37368;BME280;23240;43.210;27.910;2022-11-18T08:28:06;100079.94;;;17.20;100.00
37368;BME280;23240;43.210;27.910;2022-11-18T08:30:32;100090.63;;;17.36;100.00
37368;BME280;23240;43.210;27.910;2022-11-18T08:32:58;100090.75;;;17.20;100.00
37368;BME280;23240;43.210;27.910;2022-11-18T08:35:25;100091.50;;;17.14;100.00
37368;BME280;23240;43.210;27.910;2022-11-18T08:37:51;100082.38;;;16.92;100.00
37368;BME280;23240;43.210;27.910;2022-11-18T08:40:16;100086.63;;;16.72;100.00
37368;BME280;23240;43.210;27.910;2022-11-18T08:42:42;100092.22;;;16.62;100.00
37368;BME280;23240;43.210;27.910;2022-11-18T08:45:07;100087.25;;;16.51;100.00
37368;BME280;23240;43.210;27.910;2022-11-18T08:47:34;100104.44;;;16.35;100.00
37368;BME280;23240;43.210;27.910;2022-11-18T08:50:01;100097.00;;;16.29;100.00
37368;BME280;23240;43.210;27.910;2022-11-18T08:52:26;100099.47;;;16.38;100.00
37368;BME280;23240;43.210;27.910;2022-11-18T08:54:52;100096.19;;;16.51;100.00
37368;BME280;23240;43.210;27.910;2022-11-18T08:57:17;100098.28;;;16.72;100.00
37368;BME280;23240;43.210;27.910;2022-11-18T08:59:43;100083.53;;;16.98;100.00
37368;BME280;23240;43.210;27.910;2022-11-18T09:02:17;100079.66;;;17.15;100.00
37368;BME280;23240;43.210;27.910;2022-11-18T09:04:42;100082.13;;;17.02;100.00
37368;BME280;23240;43.210;27.910;2022-11-18T09:07:08;100075.28;;;16.91;100.00
37368;BME280;23240;43.210;27.910;2022-11-18T09:09:43;100076.81;;;16.93;100.00
37368;BME280;23240;43.210;27.910;2022-11-18T09:12:09;100071.63;;;17.07;100.00
37368;BME280;23240;43.210;27.910;2022-11-18T09:14:44;100063.25;;;17.16;100.00
37368;BME280;23240;43.210;27.910;2022-11-18T09:17:10;100069.94;;;17.20;100.00
37368;BME280;23240;43.210;27.910;2022-11-18T09:19:36;100062.22;;;17.32;100.00
37368;BME280;23240;43.210;27.910;2022-11-18T09:22:06;100059.91;;;17.73;100.00
37368;BME280;23240;43.210;27.910;2022-11-18T09:24:32;100061.31;;;17.84;100.00
37368;BME280;23240;43.210;27.910;2022-11-18T09:26:57;100058.56;;;17.69;100.00
37368;BME280;23240;43.210;27.910;2022-11-18T09:29:23;100059.53;;;17.47;100.00
37368;BME280;23240;43.210;27.910;2022-11-18T09:31:50;100051.88;;;17.36;100.00
37368;BME280;23240;43.210;27.910;2022-11-18T09:34:16;100051.69;;;17.37;100.00
37368;BME280;23240;43.210;27.910;2022-11-18T09:36:41;100056.81;;;17.32;100.00
37368;BME280;23240;43.210;27.910;2022-11-18T09:39:07;100042.53;;;17.24;100.00
37368;BME280;23240;43.210;27.910;2022-11-18T09:41:39;100034.31;;;17.17;100.00
37368;BME280;23240;43.210;27.910;2022-11-18T09:44:33;100036.63;;;17.05;100.00
37368;BME280;23240;43.210;27.910;2022-11-18T09:49:38;100029.25;;;16.99;100.00
37368;BME280;23240;43.210;27.910;2022-11-18T09:55:17;100019.50;;;16.75;100.00
37368;BME280;23240;43.210;27.910;2022-11-18T09:57:46;100015.88;;;16.60;100.00
37368;BME280;23240;43.210;27.910;2022-11-18T10:00:14;100011.06;;;16.70;100.00
37368;BME280;23240;43.210;27.910;2022-11-18T10:05:22;100012.44;;;16.66;100.00
37368;BME280;23240;43.210;27.910;2022-11-18T10:11:00;100011.25;;;16.45;100.00
37368;BME280;23240;43.210;27.910;2022-11-18T10:17:07;100009.28;;;16.39;100.00
37368;BME280;23240;43.210;27.910;2022-11-18T10:24:56;100000.31;;;16.39;100.00
37368;BME280;23240;43.210;27.910;2022-11-18T10:27:31;99993.66;;;16.27;100.00
37368;BME280;23240;43.210;27.910;2022-11-18T10:29:59;99987.28;;;16.19;100.00
37368;BME280;23240;43.210;27.910;2022-11-18T10:32:26;99985.69;;;16.10;100.00
37368;BME280;23240;43.210;27.910;2022-11-18T10:34:56;99986.34;;;16.12;100.00
37368;BME280;23240;43.210;27.910;2022-11-18T10:39:59;99977.25;;;16.28;100.00
37368;BME280;23240;43.210;27.910;2022-11-18T10:42:41;99975.88;;;16.32;100.00
37368;BME280;23240;43.210;27.910;2022-11-18T10:45:23;99980.25;;;16.33;100.00
37368;BME280;23240;43.210;27.910;2022-11-18T10:48:07;99979.25;;;16.34;100.00
37368;BME280;23240;43.210;27.910;2022-11-18T10:50:39;99987.97;;;16.44;100.00
37368;BME280;23240;43.210;27.910;2022-11-18T10:53:24;99989.63;;;16.45;100.00
37368;BME280;23240;43.210;27.910;2022-11-18T10:58:31;99985.47;;;16.58;100.00
37368;BME280;23240;43.210;27.910;2022-11-18T11:06:36;99980.00;;;16.66;100.00
37368;BME280;23240;43.210;27.910;2022-11-18T11:09:29;99975.81;;;16.63;100.00
37368;BME280;23240;43.210;27.910;2022-11-18T11:12:03;99983.13;;;16.55;100.00
37368;BME280;23240;43.210;27.910;2022-11-18T11:14:52;99976.13;;;16.45;100.00
37368;BME280;23240;43.210;27.910;2022-11-18T11:22:15;99963.69;;;16.36;100.00
37368;BME280;23240;43.210;27.910;2022-11-18T11:24:40;99969.63;;;16.32;100.00
37368;BME280;23240;43.210;27.910;2022-11-18T11:30:21;99956.03;;;16.25;100.00
37368;BME280;23240;43.210;27.910;2022-11-18T11:40:38;99947.25;;;16.23;100.00
37368;BME280;23240;43.210;27.910;2022-11-18T11:54:14;99934.91;;;16.06;100.00
37368;BME280;23240;43.210;27.910;2022-11-18T11:56:51;99932.53;;;16.03;100.00
37368;BME280;23240;43.210;27.910;2022-11-18T11:59:34;99925.63;;;16.00;100.00
37368;BME280;23240;43.210;27.910;2022-11-18T12:05:16;99919.75;;;15.97;100.00
37368;BME280;23240;43.210;27.910;2022-11-18T12:07:48;99915.19;;;15.97;100.00
37368;BME280;23240;43.210;27.910;2022-11-18T12:10:36;99911.00;;;15.94;100.00
37368;BME280;23240;43.210;27.910;2022-11-18T12:18:25;99903.84;;;16.02;100.00
37368;BME280;23240;43.210;27.910;2022-11-18T12:20:54;99900.31;;;16.01;100.00
37368;BME280;23240;43.210;27.910;2022-11-18T12:23:25;99905.34;;;16.04;100.00
37368;BME280;23240;43.210;27.910;2022-11-18T12:25:52;99894.72;;;16.03;100.00
37368;BME280;23240;43.210;27.910;2022-11-18T12:28:53;99885.09;;;16.00;100.00
37368;BME280;23240;43.210;27.910;2022-11-18T12:36:34;99881.16;;;15.88;100.00
37368;BME280;23240;43.210;27.910;2022-11-18T12:44:34;99894.50;;;15.66;100.00
37368;BME280;23240;43.210;27.910;2022-11-18T12:47:02;99898.03;;;15.67;100.00
37368;BME280;23240;43.210;27.910;2022-11-18T12:51:58;99891.41;;;15.70;100.00
37368;BME280;23240;43.210;27.910;2022-11-18T12:54:29;99885.47;;;15.74;100.00
37368;BME280;23240;43.210;27.910;2022-11-18T12:56:59;99886.50;;;15.73;100.00
37368;BME280;23240;43.210;27.910;2022-11-18T12:59:32;99878.41;;;15.73;100.00
37368;BME280;23240;43.210;27.910;2022-11-18T13:04:37;99886.56;;;15.57;100.00
37368;BME280;23240;43.210;27.910;2022-11-18T13:07:05;99882.78;;;15.43;100.00
37368;BME280;23240;43.210;27.910;2022-11-18T13:09:52;99882.50;;;15.38;100.00
37368;BME280;23240;43.210;27.910;2022-11-18T13:12:17;99882.53;;;15.30;100.00
37368;BME280;23240;43.210;27.910;2022-11-18T13:14:43;99889.09;;;15.27;100.00
37368;BME280;23240;43.210;27.910;2022-11-18T13:17:37;99889.47;;;15.24;100.00
37368;BME280;23240;43.210;27.910;2022-11-18T13:23:18;99890.97;;;15.27;100.00
37368;BME280;23240;43.210;27.910;2022-11-18T13:29:06;99897.69;;;15.31;100.00
37368;BME280;23240;43.210;27.910;2022-11-18T13:32:00;99902.22;;;15.38;100.00
37368;BME280;23240;43.210;27.910;2022-11-18T13:34:30;99895.78;;;15.39;100.00
37368;BME280;23240;43.210;27.910;2022-11-18T13:36:57;99897.81;;;15.37;100.00
37368;BME280;23240;43.210;27.910;2022-11-18T13:39:31;99893.09;;;15.39;100.00
37368;BME280;23240;43.210;27.910;2022-11-18T13:41:59;99894.13;;;15.38;100.00
37368;BME280;23240;43.210;27.910;2022-11-18T13:44:27;99901.84;;;15.41;100.00
37368;BME280;23240;43.210;27.910;2022-11-18T13:47:00;99894.06;;;15.47;100.00
37368;BME280;23240;43.210;27.910;2022-11-18T13:50:05;99899.97;;;15.42;100.00
37368;BME280;23240;43.210;27.910;2022-11-18T13:52:36;99906.94;;;15.36;100.00
37368;BME280;23240;43.210;27.910;2022-11-18T13:55:28;99911.16;;;15.39;100.00
37368;BME280;23240;43.210;27.910;2022-11-18T13:58:02;99901.91;;;15.33;100.00
37368;BME280;23240;43.210;27.910;2022-11-18T14:00:32;99910.66;;;15.35;100.00
37368;BME280;23240;43.210;27.910;2022-11-18T14:03:05;99905.25;;;15.35;100.00
37368;BME280;23240;43.210;27.910;2022-11-18T14:05:40;99905.25;;;15.35;100.00
37368;BME280;23240;43.210;27.910;2022-11-18T14:08:21;99902.03;;;15.40;100.00
37368;BME280;23240;43.210;27.910;2022-11-18T14:10:49;99901.53;;;15.36;100.00
37368;BME280;23240;43.210;27.910;2022-11-18T14:13:25;99899.50;;;15.38;100.00
37368;BME280;23240;43.210;27.910;2022-11-18T14:15:56;99904.91;;;15.38;100.00
37368;BME280;23240;43.210;27.910;2022-11-18T14:18:32;99917.88;;;15.43;100.00
37368;BME280;23240;43.210;27.910;2022-11-18T14:20:59;99914.16;;;15.44;100.00
37368;BME280;23240;43.210;27.910;2022-11-18T14:23:35;99908.75;;;15.44;100.00
37368;BME280;23240;43.210;27.910;2022-11-18T14:26:03;99900.84;;;15.42;100.00
37368;BME280;23240;43.210;27.910;2022-11-18T14:28:32;99906.41;;;15.41;100.00
37368;BME280;23240;43.210;27.910;2022-11-18T14:31:26;99893.63;;;15.35;100.00
37368;BME280;23240;43.210;27.910;2022-11-18T14:34:23;99902.22;;;15.38;100.00
37368;BME280;23240;43.210;27.910;2022-11-18T14:36:50;99884.38;;;15.29;100.00
37368;BME280;23240;43.210;27.910;2022-11-18T14:39:24;99886.06;;;15.30;100.00
37368;BME280;23240;43.210;27.910;2022-11-18T14:41:50;99877.78;;;15.32;100.00
37368;BME280;23240;43.210;27.910;2022-11-18T14:44:17;99883.66;;;15.35;100.00
37368;BME280;23240;43.210;27.910;2022-11-18T14:46:48;99882.50;;;15.38;100.00
37368;BME280;23240;43.210;27.910;2022-11-18T14:49:18;99873.53;;;15.37;100.00
37368;BME280;23240;43.210;27.910;2022-11-18T14:51:44;99875.16;;;15.47;100.00
37368;BME280;23240;43.210;27.910;2022-11-18T14:54:13;99870.78;;;15.46;100.00